Potomac — WBF7534 — position and weather

sailwx.info

Track history (hours):
 
Tides and Currents Weather Stations Pressure Air Temp Water Temp Dewpoint Dewpoint Depression Visibility Wind Speed Wind Dir Waves Ship Positions

Potomac

Owner: POTOMAC ASSOCIATION, OAKLAND, CA. More information available from US FCC via Universal Licensing System and Coast Guard Vessel Documentation Center.

Last reported at 2017-Jun-24 20:31 UTC. Time now 2017-Jun-25 20:57 UTC.
Position N 37°48' W 122°17'.

Length 51 m; draft 3.1 m.

MMSI: 367166810.

Date/timePositionNaut miles runAvg speedWind from/ knotsBaromVisibWave heightAir tempDewpointWater temp
2017-Jun-24 20:31N 37°48' W 122°17'0 0.0
2017-Jun-24 20:30N 37°48' W 122°17'0 0.0
2017-Jun-24 20:00N 37°48' W 122°17'5 9.0
2017-Jun-24 19:30N 37°48' W 122°23'510.3
2017-Jun-24 19:00N 37°52' W 122°27'4 8.9
2017-Jun-24 18:30N 37°50' W 122°22'4 9.0
2017-Jun-24 18:00N 37°48' W 122°17'0 0.3
2017-Jun-24 17:29N 37°48' W 122°17'0 0.0
2017-Jun-24 16:59N 37°48' W 122°17'0 0.0
2017-Jun-24 16:29N 37°48' W 122°17'  
2017-Jun-18 22:07N 37°48' W 122°17'0 0.1
2017-Jun-18 22:00N 37°48' W 122°17'3 6.6
2017-Jun-18 21:31N 37°48' W 122°21'611.5
2017-Jun-18 21:00N 37°50' W 122°28'1 2.7
2017-Jun-18 20:30N 37°51' W 122°28'3 6.3
2017-Jun-18 20:01N 37°49' W 122°26'4 7.7
2017-Jun-18 19:30N 37°48' W 122°21'3 6.4
2017-Jun-18 18:58N 37°48' W 122°17'0 0.0
2017-Jun-18 18:28N 37°48' W 122°17'0 0.0
2017-Jun-18 04:26N 37°48' W 122°17'3 6.7
2017-Jun-18 04:00N 37°48' W 122°20'4 7.5
2017-Jun-18 03:30N 37°49' W 122°25'4 7.4
2017-Jun-18 03:00N 37°51' W 122°28'2 4.1
2017-Jun-18 02:30N 37°52' W 122°26'510.5
2017-Jun-18 02:00N 37°49' W 122°21'4 7.2
2017-Jun-18 01:29N 37°48' W 122°17'0 0.0
2017-Jun-18 00:59N 37°48' W 122°17'0 0.0
2017-Jun-18 00:29N 37°48' W 122°17'  
2017-Jun-15 20:19N 37°48' W 122°17'0 0.7
2017-Jun-15 20:00N 37°48' W 122°17'3 6.3
2017-Jun-15 19:30N 37°48' W 122°21'510.2
2017-Jun-15 19:00N 37°50' W 122°27'2 4.9
2017-Jun-15 18:30N 37°51' W 122°24'510.7
2017-Jun-15 18:00N 37°48' W 122°18'1 1.9
2017-Jun-15 17:30N 37°48' W 122°17'0 0.0
2017-Jun-15 17:00N 37°48' W 122°17'0 0.0
2017-Jun-15 16:30N 37°48' W 122°17'0 0.0
2017-Jun-15 16:00N 37°48' W 122°17'  
Track history (hours):
 
Tides and Currents Weather Stations Pressure Air Temp Water Temp Dewpoint Dewpoint Depression Visibility Wind Speed Wind Dir Waves Ship Positions

Potomac

Owner: POTOMAC ASSOCIATION, OAKLAND, CA. More information available from US FCC via Universal Licensing System and Coast Guard Vessel Documentation Center.

Last reported at 2017-Jun-24 20:31 UTC. Time now 2017-Jun-25 20:57 UTC.
Position N 37°48' W 122°17'.

Length 51 m; draft 3.1 m.

MMSI: 367166810.

Date/timePositionNaut miles runAvg speedWind from/ knotsBaromVisibWave heightAir tempDewpointWater temp
2017-Jun-24 20:31N 37°48' W 122°17'0 0.0
2017-Jun-24 20:30N 37°48' W 122°17'0 0.0
2017-Jun-24 20:00N 37°48' W 122°17'5 9.0
2017-Jun-24 19:30N 37°48' W 122°23'510.3
2017-Jun-24 19:00N 37°52' W 122°27'4 8.9
2017-Jun-24 18:30N 37°50' W 122°22'4 9.0
2017-Jun-24 18:00N 37°48' W 122°17'0 0.3
2017-Jun-24 17:29N 37°48' W 122°17'0 0.0
2017-Jun-24 16:59N 37°48' W 122°17'0 0.0
2017-Jun-24 16:29N 37°48' W 122°17'  
2017-Jun-18 22:07N 37°48' W 122°17'0 0.1
2017-Jun-18 22:00N 37°48' W 122°17'3 6.6
2017-Jun-18 21:31N 37°48' W 122°21'611.5
2017-Jun-18 21:00N 37°50' W 122°28'1 2.7
2017-Jun-18 20:30N 37°51' W 122°28'3 6.3
2017-Jun-18 20:01N 37°49' W 122°26'4 7.7
2017-Jun-18 19:30N 37°48' W 122°21'3 6.4
2017-Jun-18 18:58N 37°48' W 122°17'0 0.0
2017-Jun-18 18:28N 37°48' W 122°17'0 0.0
2017-Jun-18 04:26N 37°48' W 122°17'3 6.7
2017-Jun-18 04:00N 37°48' W 122°20'4 7.5
2017-Jun-18 03:30N 37°49' W 122°25'4 7.4
2017-Jun-18 03:00N 37°51' W 122°28'2 4.1
2017-Jun-18 02:30N 37°52' W 122°26'510.5
2017-Jun-18 02:00N 37°49' W 122°21'4 7.2
2017-Jun-18 01:29N 37°48' W 122°17'0 0.0
2017-Jun-18 00:59N 37°48' W 122°17'0 0.0
2017-Jun-18 00:29N 37°48' W 122°17'  
2017-Jun-15 20:19N 37°48' W 122°17'0 0.7
2017-Jun-15 20:00N 37°48' W 122°17'3 6.3
2017-Jun-15 19:30N 37°48' W 122°21'510.2
2017-Jun-15 19:00N 37°50' W 122°27'2 4.9
2017-Jun-15 18:30N 37°51' W 122°24'510.7
2017-Jun-15 18:00N 37°48' W 122°18'1 1.9
2017-Jun-15 17:30N 37°48' W 122°17'0 0.0
2017-Jun-15 17:00N 37°48' W 122°17'0 0.0
2017-Jun-15 16:30N 37°48' W 122°17'0 0.0
2017-Jun-15 16:00N 37°48' W 122°17'  

Dump ship's entire track history